createdAt,value
2017-10-08T21:12:18.151Z,1004.95
2017-10-08T21:13:18.126Z,1004.95
2017-10-08T21:15:11.204Z,1004.95
2017-10-08T21:16:11.176Z,1004.91
2017-10-08T21:18:04.194Z,1004.95
2017-10-08T21:19:04.207Z,1004.92
2017-10-08T21:20:57.262Z,1004.94
2017-10-08T21:21:57.232Z,1004.94
2017-10-08T21:23:50.287Z,1004.96
2017-10-08T21:24:50.257Z,1004.93
2017-10-08T21:26:43.271Z,1004.97
2017-10-08T21:27:43.283Z,1004.96
2017-10-08T21:29:36.341Z,1005.00
2017-10-08T21:30:36.313Z,1005.01
2017-10-08T21:32:29.325Z,1005.02
2017-10-08T21:33:29.335Z,1005.02
2017-10-08T21:35:22.389Z,1004.99
2017-10-08T21:36:22.359Z,1005.02
2017-10-08T21:38:15.368Z,1005.03
2017-10-08T21:39:15.383Z,1005.05
2017-10-08T21:40:15.398Z,1005.07
2017-10-08T21:41:15.412Z,1005.03
2017-10-08T21:42:15.435Z,1005.04
2017-10-08T21:43:15.454Z,1005.04
2017-10-08T21:44:15.470Z,1005.00
2017-10-08T21:45:15.488Z,1005.05
2017-10-08T21:46:15.500Z,1005.01
2017-10-08T21:47:15.521Z,1004.97
2017-10-08T21:48:15.537Z,1005.00
2017-10-08T21:49:15.556Z,1005.02
2017-10-08T21:50:15.572Z,1005.02
2017-10-08T21:51:15.593Z,1005.01
2017-10-08T21:52:15.623Z,1005.02
2017-10-08T21:53:15.623Z,1005.00
2017-10-08T21:54:15.646Z,1005.01
2017-10-08T21:55:15.658Z,1005.04
2017-10-08T21:56:15.679Z,1005.04
2017-10-08T21:57:15.693Z,1005.02
2017-10-08T21:58:15.718Z,1005.06
2017-10-08T21:59:15.725Z,1005.06
2017-10-08T22:00:15.742Z,1005.04
2017-10-08T22:01:15.762Z,1005.03
2017-10-08T22:02:15.777Z,1005.03
2017-10-08T22:03:15.796Z,1005.05
2017-10-08T22:04:15.812Z,1005.05
2017-10-08T22:05:15.831Z,1005.02
2017-10-08T22:06:15.847Z,1005.02
2017-10-08T22:07:15.865Z,1005.04
2017-10-08T22:08:15.893Z,1005.03
2017-10-08T22:09:15.901Z,1004.99
2017-10-08T22:10:15.914Z,1005.02
2017-10-08T22:11:15.933Z,1005.03
2017-10-08T22:12:15.952Z,1005.02
2017-10-08T22:13:15.965Z,1005.04
2017-10-08T22:14:15.988Z,1005.07
2017-10-08T22:15:16.002Z,1005.06
2017-10-08T22:16:16.018Z,1005.02
2017-10-08T22:17:16.039Z,1005.05
2017-10-08T22:18:16.055Z,1005.04
2017-10-08T22:19:16.072Z,1005.01
2017-10-08T22:20:16.089Z,1005.01
2017-10-08T22:21:16.108Z,1005.03
2017-10-08T22:22:16.124Z,1005.00
2017-10-08T22:23:16.141Z,1004.99
2017-10-08T22:24:16.158Z,1005.00
2017-10-08T22:25:16.174Z,1004.96
2017-10-08T22:26:16.190Z,1004.97
2017-10-08T22:27:16.211Z,1004.99
2017-10-08T22:28:16.226Z,1004.97
2017-10-08T22:29:16.242Z,1004.95
2017-10-08T22:30:16.258Z,1004.93
2017-10-08T22:31:16.277Z,1004.98
2017-10-08T22:32:16.293Z,1004.94
2017-10-08T22:33:16.311Z,1004.95
2017-10-08T22:34:16.340Z,1004.94
2017-10-08T22:35:16.345Z,1004.95
2017-10-08T22:36:16.364Z,1004.96
2017-10-08T22:37:16.381Z,1004.97
2017-10-08T22:38:16.398Z,1004.95
2017-10-08T22:39:16.417Z,1004.96
2017-10-08T22:40:16.444Z,1004.98
2017-10-08T22:41:16.449Z,1004.95
2017-10-08T22:42:16.465Z,1004.95
2017-10-08T22:43:16.485Z,1004.93
2017-10-08T22:44:16.504Z,1004.96
2017-10-08T22:45:16.521Z,1004.97
2017-10-08T22:46:16.532Z,1004.97
2017-10-08T22:47:16.553Z,1004.99
2017-10-08T22:48:16.568Z,1004.98
2017-10-08T22:49:16.585Z,1004.99
2017-10-08T22:50:16.605Z,1004.98
2017-10-08T22:51:16.623Z,1004.94
2017-10-08T22:52:16.637Z,1004.94
2017-10-08T22:53:16.656Z,1004.93
2017-10-08T22:54:16.671Z,1004.93
2017-10-08T22:55:16.688Z,1004.93
2017-10-08T22:56:16.708Z,1004.91
2017-10-08T22:57:16.722Z,1004.91
2017-10-08T22:58:16.740Z,1004.95
2017-10-08T22:59:16.762Z,1004.93
2017-10-08T23:00:16.776Z,1004.92
2017-10-08T23:01:16.791Z,1004.89
2017-10-08T23:02:16.812Z,1004.90
2017-10-08T23:03:16.829Z,1004.90
2017-10-08T23:04:16.844Z,1004.90
2017-10-08T23:05:16.861Z,1004.90
2017-10-08T23:06:16.877Z,1004.91
2017-10-08T23:07:16.896Z,1004.90
2017-10-08T23:08:16.913Z,1004.90
2017-10-08T23:09:16.925Z,1004.91
2017-10-08T23:10:16.945Z,1004.93
2017-10-08T23:11:16.960Z,1004.91
2017-10-08T23:12:16.981Z,1004.94
2017-10-08T23:13:16.993Z,1004.92
2017-10-08T23:14:17.013Z,1004.90
2017-10-08T23:15:17.033Z,1004.92
2017-10-08T23:16:17.049Z,1004.89
2017-10-08T23:17:17.065Z,1004.88
2017-10-08T23:18:17.084Z,1004.91
2017-10-08T23:19:17.101Z,1004.86
2017-10-08T23:20:17.115Z,1004.91
2017-10-08T23:21:17.130Z,1004.89
2017-10-08T23:22:17.153Z,1004.91
2017-10-08T23:23:17.165Z,1004.89
2017-10-08T23:24:17.182Z,1004.91
2017-10-08T23:25:17.202Z,1004.90
2017-10-08T23:26:17.229Z,1004.90
2017-10-08T23:27:17.240Z,1004.90
2017-10-08T23:28:17.253Z,1004.89
2017-10-08T23:29:17.282Z,1004.90
2017-10-08T23:30:17.284Z,1004.90
2017-10-08T23:31:17.302Z,1004.91
2017-10-08T23:32:17.321Z,1004.91
2017-10-08T23:33:17.337Z,1004.94
2017-10-08T23:34:17.354Z,1004.91
2017-10-08T23:35:17.371Z,1004.96
2017-10-08T23:36:17.385Z,1004.91
2017-10-08T23:37:17.404Z,1004.94
2017-10-08T23:38:17.420Z,1004.93
2017-10-08T23:39:17.438Z,1004.95
2017-10-08T23:40:17.452Z,1004.95
2017-10-08T23:41:17.473Z,1004.95
2017-10-08T23:42:17.489Z,1004.90
2017-10-08T23:43:17.506Z,1004.93
2017-10-08T23:44:17.523Z,1004.94
2017-10-08T23:45:17.539Z,1004.91
2017-10-08T23:46:17.558Z,1004.93
2017-10-08T23:47:17.572Z,1004.95
2017-10-08T23:48:17.591Z,1004.94
2017-10-08T23:49:17.607Z,1004.96
2017-10-08T23:50:17.625Z,1004.94
2017-10-08T23:51:17.642Z,1004.97
2017-10-08T23:52:17.657Z,1004.96
2017-10-08T23:53:17.673Z,1004.97
2017-10-08T23:54:17.692Z,1005.00
2017-10-08T23:55:17.708Z,1004.98
2017-10-08T23:56:17.725Z,1004.98
2017-10-08T23:57:17.742Z,1004.98
2017-10-08T23:58:17.762Z,1004.98
2017-10-08T23:59:17.776Z,1004.96
